Time;durP1;ratioP1;P1;durP2;ratioP2;P2;SDS_P1;SDS_P2;PMS_P1;PMS_P2;Temp;Humidity;BMP_temperature;BMP_pressure;BME280_temperature;BME280_humidity;BME280_pressure;Samples;Min_cycle;Max_cycle;Signal;HPM_P1;HPM_P2
2022/04/20 00:00:35;;;;;;;5.85;3.30;;;6.60;99.90;7.10;98659.00;;;;5002449;28;81949;-65
2022/04/20 00:03:03;;;;;;;6.32;3.20;;;6.70;99.90;7.10;98663.00;;;;4999898;28;83355;-66
2022/04/20 00:05:33;;;;;;;7.28;3.22;;;6.60;99.90;7.00;98660.00;;;;5004719;28;82263;-65
2022/04/20 00:08:04;;;;;;;5.95;3.28;;;6.60;99.90;7.00;98654.00;;;;5018597;28;82986;-66
2022/04/20 00:10:30;;;;;;;6.30;3.30;;;6.60;99.90;7.00;98655.00;;;;5003310;28;82005;-66
2022/04/20 00:12:58;;;;;;;5.60;3.50;;;6.50;99.90;6.90;98656.00;;;;5004742;28;82250;-65
2022/04/20 00:15:24;;;;;;;6.72;3.30;;;6.50;99.90;6.90;98651.00;;;;5003628;28;82655;-65
2022/04/20 00:17:51;;;;;;;6.18;3.10;;;6.50;99.90;6.80;98654.00;;;;5004367;28;82380;-65
2022/04/20 00:20:18;;;;;;;4.68;3.15;;;6.50;99.90;6.90;98654.00;;;;5003651;28;83011;-65
2022/04/20 00:22:44;;;;;;;7.13;2.95;;;6.50;99.90;6.80;98668.00;;;;5004542;28;82293;-65
2022/04/20 00:25:10;;;;;;;5.32;3.60;;;6.40;99.90;6.80;98646.00;;;;5003287;28;84628;-66
2022/04/20 00:27:39;;;;;;;5.13;3.30;;;6.40;99.90;6.70;98661.00;;;;5003873;28;83401;-66
2022/04/20 00:30:09;;;;;;;10.18;3.50;;;6.30;99.90;6.70;98667.00;;;;5003044;28;82074;-65
2022/04/20 00:32:36;;;;;;;5.65;3.33;;;6.20;99.90;6.60;98664.00;;;;5003028;28;82532;-65
2022/04/20 00:35:02;;;;;;;6.00;3.53;;;6.10;99.90;6.50;98652.00;;;;5003506;28;82862;-65
2022/04/20 00:37:29;;;;;;;5.28;3.35;;;6.10;99.90;6.50;98654.00;;;;5004249;28;83520;-64
2022/04/20 00:39:55;;;;;;;8.88;3.72;;;6.10;99.90;6.50;98656.00;;;;5003832;28;82155;-66
2022/04/20 00:42:23;;;;;;;8.10;4.10;;;6.00;99.90;6.40;98661.00;;;;5004498;28;82509;-66
2022/04/20 00:44:50;;;;;;;7.55;3.78;;;6.00;99.90;6.30;98653.00;;;;5001937;28;83579;-65
2022/04/20 00:47:17;;;;;;;6.07;3.75;;;5.90;99.90;6.20;98652.00;;;;5003465;28;83301;-65
2022/04/20 00:49:47;;;;;;;6.35;4.00;;;5.80;99.90;6.20;98672.00;;;;5003491;28;81844;-65
2022/04/20 00:52:14;;;;;;;6.70;3.58;;;5.80;99.90;6.20;98677.00;;;;5003862;28;82588;-65
2022/04/20 00:54:41;;;;;;;6.38;3.88;;;5.80;99.90;6.20;98662.00;;;;5001138;28;82009;-65
2022/04/20 00:57:07;;;;;;;5.28;3.70;;;5.80;99.90;6.20;98656.00;;;;5001670;28;82777;-65
2022/04/20 00:59:36;;;;;;;6.93;3.65;;;5.80;99.90;6.10;98676.00;;;;5001114;28;82252;-65
2022/04/20 01:02:03;;;;;;;5.93;3.60;;;5.70;99.90;6.00;98665.00;;;;5003009;28;82321;-65
2022/04/20 01:04:31;;;;;;;5.95;3.75;;;5.70;99.90;6.00;98674.00;;;;5002196;28;83301;-57
2022/04/20 01:07:17;;;;;;;6.63;4.05;;;5.60;99.90;6.00;98670.00;;;;5003048;28;82405;-60
2022/04/20 01:10:04;;;;;;;7.93;3.70;;;5.60;99.90;6.00;98675.00;;;;4987596;28;82951;-59
2022/04/20 01:12:54;;;;;;;6.20;3.25;;;5.60;99.90;5.90;98658.00;;;;4983493;28;82854;-62
2022/04/20 01:15:38;;;;;;;5.70;3.80;;;5.50;99.90;5.80;98663.00;;;;5001500;28;82702;-62
2022/04/20 01:18:18;;;;;;;7.90;3.80;;;5.40;99.90;5.80;98665.00;;;;5002841;28;82919;-62
2022/04/20 01:21:05;;;;;;;5.82;4.07;;;5.40;99.90;5.80;98670.00;;;;5002963;28;81876;-62
2022/04/20 01:23:46;;;;;;;5.85;3.47;;;5.30;99.90;5.70;98668.00;;;;5002810;28;82281;-62
2022/04/20 01:26:33;;;;;;;6.32;3.35;;;5.30;99.90;5.60;98667.00;;;;5002131;28;82482;-62
2022/04/20 01:29:04;;;;;;;4.47;3.00;;;5.30;99.90;5.60;98661.00;;;;5019495;28;82969;-63
2022/04/20 01:31:40;;;;;;;4.35;3.28;;;5.30;99.90;5.60;98662.00;;;;5002658;28;81960;-62
2022/04/20 01:34:26;;;;;;;5.32;3.30;;;5.30;99.90;5.60;98653.00;;;;4996978;28;82831;-62
2022/04/20 01:36:52;;;;;;;6.60;3.22;;;5.30;99.90;5.60;98651.00;;;;5012342;28;83541;-63
2022/04/20 01:39:19;;;;;;;5.22;2.95;;;5.30;99.90;5.60;98658.00;;;;5003518;28;83495;-63
2022/04/20 01:41:46;;;;;;;4.90;2.60;;;5.30;99.90;5.60;98648.00;;;;5002396;28;81919;-63
2022/04/20 01:44:12;;;;;;;4.50;2.28;;;5.30;99.90;5.60;98660.00;;;;5002176;28;82906;-66
2022/04/20 01:46:46;;;;;;;5.07;2.33;;;5.30;99.90;5.60;98647.00;;;;5001753;28;82771;-62
2022/04/20 01:49:30;;;;;;;4.55;2.50;;;5.30;99.90;5.60;98648.00;;;;5002766;28;82485;-62
2022/04/20 01:52:29;;;;;;;5.13;2.33;;;5.30;99.90;5.60;98642.00;;;;4991071;28;82216;-62
2022/04/20 01:55:13;;;;;;;4.30;2.42;;;5.30;99.90;5.60;98639.00;;;;5001848;28;82498;-62
2022/04/20 01:58:00;;;;;;;4.50;2.22;;;5.30;99.90;5.70;98615.00;;;;5005951;28;83591;-62
2022/04/20 02:00:46;;;;;;;4.80;2.30;;;5.30;99.90;5.60;98631.00;;;;5003561;28;82156;-66
2022/04/20 02:03:29;;;;;;;3.10;1.95;;;5.30;99.90;5.60;98620.00;;;;5004084;28;83288;-65
2022/04/20 02:06:10;;;;;;;4.88;2.00;;;5.20;99.90;5.50;98626.00;;;;5005168;28;82310;-62
2022/04/20 02:08:52;;;;;;;5.65;2.35;;;5.10;99.90;5.50;98631.00;;;;5004848;28;82492;-62
2022/04/20 02:11:38;;;;;;;3.50;2.05;;;5.10;99.90;5.40;98619.00;;;;4990965;28;82389;-63
2022/04/20 02:14:36;;;;;;;3.28;2.15;;;5.00;99.90;5.40;98618.00;;;;5003400;28;82577;-62
2022/04/20 02:17:14;;;;;;;5.00;2.30;;;5.10;99.90;5.40;98632.00;;;;5004290;28;84297;-62
2022/04/20 02:19:45;;;;;;;3.40;1.98;;;5.10;99.90;5.50;98629.00;;;;5005432;28;82781;-62
2022/04/20 02:22:29;;;;;;;5.00;1.98;;;5.10;99.90;5.50;98638.00;;;;5005573;28;82310;-62
2022/04/20 02:24:59;;;;;;;4.32;2.20;;;5.20;99.90;5.60;98646.00;;;;5004572;28;82133;-62
2022/04/20 02:27:26;;;;;;;3.72;2.33;;;5.10;99.90;5.50;98639.00;;;;5003902;28;83651;-64
2022/04/20 02:29:53;;;;;;;4.35;2.03;;;5.10;99.90;5.60;98620.00;;;;5004661;28;83572;-65
2022/04/20 02:32:21;;;;;;;4.47;2.10;;;5.10;99.90;5.60;98641.00;;;;5003871;28;84463;-57
2022/04/20 02:34:48;;;;;;;4.13;1.90;;;5.20;99.90;5.60;98627.00;;;;5003968;28;82000;-57
2022/04/20 02:37:15;;;;;;;4.30;2.15;;;5.20;99.90;5.70;98619.00;;;;5021484;28;82844;-58
2022/04/20 02:39:44;;;;;;;3.05;2.00;;;5.20;99.90;5.60;98625.00;;;;5003926;28;82641;-55
2022/04/20 02:42:11;;;;;;;4.00;1.90;;;5.20;99.90;5.60;98636.00;;;;5020890;28;82380;-56
2022/04/20 02:44:39;;;;;;;3.80;1.80;;;5.30;99.90;5.70;98634.00;;;;5005830;28;81862;-57
2022/04/20 02:47:06;;;;;;;3.65;1.80;;;5.30;99.90;5.70;98619.00;;;;5005850;28;83313;-56
2022/04/20 02:49:32;;;;;;;4.72;1.90;;;5.30;99.90;5.80;98627.00;;;;4987222;28;82923;-57
2022/04/20 02:51:58;;;;;;;2.67;1.80;;;5.30;99.90;5.80;98630.00;;;;5005545;28;82224;-58
2022/04/20 02:54:30;;;;;;;2.72;1.77;;;5.30;99.90;5.70;98633.00;;;;5003695;28;83563;-54
2022/04/20 02:56:56;;;;;;;7.30;2.00;;;5.30;99.90;5.70;98641.00;;;;5004286;28;83367;-56
2022/04/20 02:59:23;;;;;;;5.47;1.58;;;5.40;99.90;5.90;98641.00;;;;5002164;28;82801;-58
2022/04/20 03:01:49;;;;;;;5.18;1.70;;;5.40;99.90;5.90;98646.00;;;;5003102;28;82290;-54
2022/04/20 03:04:18;;;;;;;3.05;1.67;;;5.50;99.90;5.90;98637.00;;;;5004121;28;82287;-56
2022/04/20 03:06:45;;;;;;;4.63;1.40;;;5.50;99.90;6.20;98620.00;;;;5003783;28;82248;-55
2022/04/20 03:09:17;;;;;;;2.75;1.50;;;5.60;99.90;7.00;98631.00;;;;5001869;28;82432;-54
2022/04/20 03:11:44;;;;;;;3.95;1.60;;;6.10;99.90;7.60;98659.00;;;;5004270;28;84343;-57
2022/04/20 03:14:13;;;;;;;3.28;1.77;;;6.40;99.90;8.10;98632.00;;;;5004868;28;82008;-66
2022/04/20 03:16:40;;;;;;;5.03;1.80;;;6.80;99.90;8.30;98642.00;;;;5003881;28;83269;-66
2022/04/20 03:19:10;;;;;;;4.90;1.70;;;7.00;99.90;8.70;98630.00;;;;4985871;28;83634;-66
2022/04/20 03:21:37;;;;;;;4.03;1.90;;;7.30;99.90;9.10;98644.00;;;;5004264;28;83860;-67
2022/04/20 03:24:05;;;;;;;4.07;1.73;;;7.50;99.90;9.20;98656.00;;;;5003948;28;82090;-65
2022/04/20 03:26:55;;;;;;;4.78;1.50;;;7.70;99.90;9.40;98667.00;;;;5004320;28;82606;-65
2022/04/20 03:29:29;;;;;;;4.15;1.63;;;7.90;99.90;9.20;98645.00;;;;5003495;28;82657;-65
2022/04/20 03:31:55;;;;;;;3.97;2.03;;;7.70;99.90;9.20;98652.00;;;;5005436;28;82377;-65
2022/04/20 03:34:22;;;;;;;3.58;1.75;;;7.60;99.90;9.20;98649.00;;;;5003927;28;82254;-65
2022/04/20 03:36:48;;;;;;;4.43;1.40;;;7.60;99.90;9.50;98645.00;;;;5004295;28;83739;-65
2022/04/20 03:39:14;;;;;;;4.32;1.67;;;7.70;99.90;9.70;98632.00;;;;5003176;28;82728;-65
2022/04/20 03:41:41;;;;;;;3.97;1.42;;;8.10;99.90;9.60;98636.00;;;;5003311;28;82301;-66
2022/04/20 03:44:08;;;;;;;3.03;1.35;;;8.00;99.90;9.50;98644.00;;;;5003401;28;83286;-65
2022/04/20 03:46:35;;;;;;;2.67;1.20;;;7.90;99.90;9.70;98635.00;;;;5004157;28;82099;-65
2022/04/20 03:49:01;;;;;;;6.10;1.30;;;8.00;99.90;9.50;98640.00;;;;5004232;28;82332;-64
2022/04/20 03:51:28;;;;;;;3.33;1.30;;;7.80;99.90;9.60;98635.00;;;;5004371;28;82401;-65
2022/04/20 03:53:55;;;;;;;2.95;1.48;;;8.00;99.90;10.10;98638.00;;;;4996010;28;82439;-56
2022/04/20 03:56:22;;;;;;;5.03;1.50;;;8.20;99.90;9.90;98624.00;;;;4998081;28;82572;-55
2022/04/20 03:58:48;;;;;;;4.15;1.40;;;8.20;99.10;9.70;98630.00;;;;5002091;28;82517;-58
2022/04/20 04:01:16;;;;;;;3.45;1.58;;;8.20;99.20;9.60;98643.00;;;;5000525;28;82338;-58
2022/04/20 04:03:43;;;;;;;3.15;1.35;;;8.10;98.80;10.00;98633.00;;;;5002572;28;82393;-56
2022/04/20 04:06:15;;;;;;;7.85;1.55;;;8.30;99.50;9.60;98626.00;;;;5002533;28;82644;-59
2022/04/20 04:08:41;;;;;;;3.08;1.30;;;8.10;99.00;9.90;98622.00;;;;5002424;28;83634;-57
2022/04/20 04:11:08;;;;;;;2.70;1.25;;;8.20;98.80;9.90;98611.00;;;;5003609;28;83759;-56
2022/04/20 04:13:36;;;;;;;3.58;1.30;;;8.20;98.40;9.90;98621.00;;;;4999913;28;82116;-55
2022/04/20 04:16:02;;;;;;;4.55;1.40;;;8.30;98.80;10.30;98606.00;;;;5002667;28;84914;-57
2022/04/20 04:18:30;;;;;;;8.23;1.60;;;8.50;96.90;10.40;98621.00;;;;5002045;28;83684;-55
2022/04/20 04:20:59;;;;;;;5.03;1.45;;;8.60;97.70;10.30;98618.00;;;;5001662;28;82707;-55
2022/04/20 04:23:25;;;;;;;4.93;1.63;;;8.50;97.80;10.20;98633.00;;;;5004267;28;82204;-57
2022/04/20 04:26:06;;;;;;;4.75;1.55;;;8.60;96.70;10.30;98595.00;;;;4999789;28;82681;-54
2022/04/20 04:28:40;;;;;;;10.95;1.92;;;8.60;95.80;10.60;98622.00;;;;5014502;28;82637;-57
2022/04/20 04:31:07;;;;;;;4.82;1.45;;;8.80;94.50;10.90;98619.00;;;;5003157;28;82356;-55
2022/04/20 04:33:35;;;;;;;4.55;1.27;;;9.00;93.50;10.90;98634.00;;;;4984674;28;83062;-56
2022/04/20 04:36:02;;;;;;;4.30;1.25;;;9.10;92.90;10.90;98620.00;;;;4994117;28;82448;-55
2022/04/20 04:38:32;;;;;;;3.20;1.33;;;9.00;92.10;10.80;98649.00;;;;5002550;28;83550;-56
2022/04/20 04:40:59;;;;;;;6.03;1.33;;;9.10;91.80;10.90;98637.00;;;;5002762;28;82267;-56
2022/04/20 04:43:29;;;;;;;4.53;1.70;;;9.10;91.30;10.90;98655.00;;;;5002174;28;82163;-54
2022/04/20 04:49:00;;;;;;;5.22;1.50;;;9.40;90.20;11.00;98639.00;;;;5002690;28;83606;-57
2022/04/20 04:51:26;;;;;;;7.25;1.17;;;9.30;89.20;11.00;98655.00;;;;5002725;28;84096;-59
2022/04/20 04:53:53;;;;;;;4.95;1.88;;;9.40;85.70;11.00;98653.00;;;;5001795;28;82008;-59
2022/04/20 04:56:29;;;;;;;4.03;1.30;;;9.40;82.60;11.00;98677.00;;;;5002304;28;82425;-58
2022/04/20 04:58:56;;;;;;;6.28;1.40;;;9.40;82.30;10.90;98668.00;;;;5001030;28;82839;-58
2022/04/20 05:01:23;;;;;;;7.13;1.15;;;9.40;80.90;10.50;98693.00;;;;5001149;28;85032;-57
2022/04/20 05:03:53;;;;;;;2.63;1.00;;;9.30;73.00;10.00;98691.00;;;;4998945;28;82128;-57
2022/04/20 05:06:20;;;;;;;7.95;1.50;;;9.00;70.60;9.50;98689.00;;;;5001538;28;82250;-56
2022/04/20 05:09:06;;;;;;;6.40;1.50;;;8.80;67.30;9.00;98669.00;;;;5001939;28;85198;-58
2022/04/20 05:11:35;;;;;;;5.28;1.33;;;8.60;68.00;9.00;98689.00;;;;5001481;28;82967;-61
2022/04/20 05:14:06;;;;;;;9.07;1.58;;;8.60;70.20;8.90;98702.00;;;;5001212;28;82007;-59
2022/04/20 05:16:36;;;;;;;5.95;1.30;;;8.40;68.10;9.00;98667.00;;;;5001991;28;84489;-59
2022/04/20 05:19:04;;;;;;;7.88;1.50;;;8.50;70.40;8.90;98677.00;;;;5001541;28;82783;-59
2022/04/20 05:21:31;;;;;;;5.18;1.40;;;8.50;72.30;9.00;98681.00;;;;5001475;28;82383;-58
2022/04/20 05:23:58;;;;;;;7.88;1.67;;;8.50;77.10;9.00;98680.00;;;;5000826;28;83524;-59
2022/04/20 05:26:27;;;;;;;10.25;1.55;;;8.50;77.00;8.90;98678.00;;;;5001461;28;83386;-59
2022/04/20 05:28:54;;;;;;;8.02;1.40;;;8.50;76.10;8.90;98692.00;;;;5001525;28;82509;-57
2022/04/20 05:31:20;;;;;;;9.05;1.52;;;8.50;73.80;8.90;98684.00;;;;5002142;28;82779;-59
2022/04/20 05:33:47;;;;;;;10.88;1.88;;;8.50;79.60;9.00;98682.00;;;;5001277;28;82242;-59
2022/04/20 05:36:18;;;;;;;6.85;1.35;;;8.60;81.60;9.20;98664.00;;;;4992044;28;82456;-59
2022/04/20 05:41:40;;;;;;;8.55;1.40;;;8.60;80.30;9.00;98704.00;;;;5005398;28;82487;-60
2022/04/20 05:44:10;;;;;;;8.43;1.52;;;8.50;80.30;9.00;98707.00;;;;5004903;28;82287;-58
2022/04/20 05:46:39;;;;;;;15.88;1.65;;;8.60;81.10;9.10;98696.00;;;;5005249;28;82378;-59
2022/04/20 05:49:13;;;;;;;6.32;1.55;;;8.60;79.80;9.10;98700.00;;;;4995916;28;83926;-60
2022/04/20 05:51:40;;;;;;;5.72;1.50;;;8.60;80.20;9.00;98685.00;;;;4988221;28;85882;-58
2022/04/20 05:54:06;;;;;;;4.93;1.40;;;8.50;80.20;9.00;98673.00;;;;5004569;28;82141;-59
2022/04/20 05:56:35;;;;;;;7.22;1.40;;;8.60;80.40;9.10;98693.00;;;;5004842;28;82563;-59
2022/04/20 05:59:03;;;;;;;8.38;1.50;;;8.60;80.70;9.20;98704.00;;;;5003672;28;82651;-59
2022/04/20 06:01:31;;;;;;;6.47;1.63;;;8.70;79.00;9.30;98704.00;;;;4987164;28;83473;-57
2022/04/20 06:04:13;;;;;;;6.05;1.60;;;8.80;77.80;9.30;98716.00;;;;5003698;28;82270;-56
2022/04/20 06:06:49;;;;;;;8.55;1.88;;;8.80;78.90;9.30;98704.00;;;;5017673;28;83218;-58
2022/04/20 06:09:20;;;;;;;4.43;1.40;;;8.80;81.40;9.30;98717.00;;;;5004229;28;82754;-58
2022/04/20 06:11:58;;;;;;;4.70;1.63;;;8.90;82.50;9.50;98727.00;;;;5005716;28;81906;-58
2022/04/20 06:14:39;;;;;;;8.70;1.77;;;9.00;83.40;9.40;98725.00;;;;4999149;28;82919;-58
2022/04/20 06:17:12;;;;;;;6.72;1.80;;;8.90;82.20;9.40;98713.00;;;;5004593;28;84650;-59
2022/04/20 06:19:44;;;;;;;;;;;8.90;82.20;9.60;98715.00;;;;5004808;28;82857;-56
2022/04/20 06:22:24;;;;;;;4.85;1.73;;;9.10;83.00;9.70;98728.00;;;;5005454;28;82033;-59
2022/04/20 06:25:02;;;;;;;4.78;1.60;;;9.20;83.20;9.90;98736.00;;;;5006059;28;82252;-57
2022/04/20 06:28:06;;;;;;;7.93;1.85;;;9.40;81.30;10.00;98731.00;;;;5002672;28;82480;-54
2022/04/20 06:30:56;;;;;;;8.55;1.40;;;9.40;79.70;10.00;98738.00;;;;4986541;28;83031;-58
2022/04/20 06:33:58;;;;;;;9.00;1.80;;;9.40;80.40;10.00;98714.00;;;;4930826;28;82199;-57
2022/04/20 06:36:56;;;;;;;7.00;1.55;;;9.40;81.70;10.00;98707.00;;;;5004420;28;82164;-58
2022/04/20 06:39:51;;;;;;;10.27;1.60;;;9.40;82.30;10.20;98745.00;;;;4985465;28;82256;-57
2022/04/20 06:42:40;;;;;;;9.65;1.70;;;9.60;85.00;10.10;98706.00;;;;4984162;28;83720;-54
2022/04/20 06:45:26;;;;;;;15.27;1.73;;;9.60;82.10;10.30;98740.00;;;;5006449;28;83147;-58
2022/04/20 06:48:11;;;;;;;6.63;1.38;;;9.70;81.90;10.30;98728.00;;;;4997001;28;82310;-57
2022/04/20 06:50:43;;;;;;;7.45;1.48;;;9.70;83.00;10.40;98731.00;;;;5004586;28;82410;-58
2022/04/20 06:58:59;;;;;;;12.50;1.75;;;9.90;78.60;10.70;98697.00;;;;4996572;28;83309;-58
2022/04/20 07:01:48;;;;;;;7.57;2.05;;;10.00;77.20;10.50;98700.00;;;;5003674;28;83482;-58
2022/04/20 07:04:37;;;;;;;5.13;1.55;;;9.90;77.90;10.80;98684.00;;;;4993408;28;82919;-59
2022/04/20 07:07:21;;;;;;;10.82;1.95;;;10.10;77.20;11.00;98680.00;;;;4979424;28;82768;-58
2022/04/20 07:10:07;;;;;;;5.78;1.60;;;10.30;75.70;11.20;98701.00;;;;5003465;28;82838;-59
2022/04/20 07:12:54;;;;;;;8.30;1.63;;;10.50;72.20;11.30;98690.00;;;;5003565;28;82941;-61
2022/04/20 07:15:20;;;;;;;6.60;1.50;;;10.60;71.10;11.30;98690.00;;;;5003492;28;82661;-59
2022/04/20 07:17:47;;;;;;;5.30;1.30;;;10.60;68.90;11.10;98692.00;;;;5003368;28;84188;-57
2022/04/20 07:20:32;;;;;;;7.35;1.30;;;10.50;67.20;11.10;98696.00;;;;5002700;28;81991;-58
2022/04/20 07:23:05;;;;;;;5.97;1.50;;;10.50;69.30;11.30;98700.00;;;;5003907;28;82306;-58
2022/04/20 07:25:39;;;;;;;5.22;1.23;;;10.70;70.10;11.40;98721.00;;;;5001288;28;87553;-57
2022/04/20 07:28:20;;;;;;;5.73;1.50;;;10.70;68.20;11.40;98698.00;;;;5001091;28;87308;-57
2022/04/20 07:31:04;;;;;;;6.22;1.48;;;10.70;66.80;11.50;98705.00;;;;5002898;28;86907;-58
2022/04/20 07:33:49;;;;;;;4.53;1.50;;;10.80;68.60;11.20;98707.00;;;;4993505;28;87430;-56
2022/04/20 07:36:36;;;;;;;9.13;1.45;;;10.60;74.10;11.30;98681.00;;;;5000812;28;87947;-59
2022/04/20 07:39:22;;;;;;;6.75;1.30;;;10.70;76.10;11.70;98707.00;;;;4983236;28;91746;-57
2022/04/20 07:42:07;;;;;;;5.15;1.50;;;10.90;76.00;12.00;98703.00;;;;4998024;28;87525;-57
2022/04/20 07:44:56;;;;;;;8.27;1.60;;;11.30;75.10;12.00;98708.00;;;;4982485;28;87284;-55
2022/04/20 07:47:56;;;;;;;10.50;2.58;;;11.20;69.20;12.10;98688.00;;;;4997503;28;87458;-56
2022/04/20 07:50:46;;;;;;;6.40;1.80;;;11.30;66.90;12.00;98703.00;;;;5000340;28;88406;-57
2022/04/20 07:53:30;;;;;;;6.45;1.63;;;11.20;68.70;12.00;98676.00;;;;5000096;28;87435;-58
2022/04/20 07:56:10;;;;;;;12.27;2.10;;;11.20;70.00;11.80;98692.00;;;;5001718;28;86179;-57
2022/04/20 07:59:15;;;;;;;12.52;2.00;;;11.10;69.30;11.70;98671.00;;;;4989644;28;88245;-59
2022/04/20 08:01:59;;;;;;;11.27;1.80;;;11.00;72.30;11.90;98722.00;;;;5000522;28;86945;-57
2022/04/20 08:04:25;;;;;;;14.35;2.67;;;11.20;72.50;12.00;98702.00;;;;5000786;28;88190;-59
2022/04/20 08:07:02;;;;;;;6.28;1.38;;;11.20;72.90;12.00;98677.00;;;;5000129;28;87360;-59
2022/04/20 08:09:29;;;;;;;10.52;1.67;;;11.30;71.80;11.90;98652.00;;;;5013820;28;88807;-60
2022/04/20 08:11:55;;;;;;;9.48;1.83;;;11.20;71.00;12.00;98668.00;;;;4999589;28;89762;-59
2022/04/20 08:14:23;;;;;;;7.70;1.55;;;11.30;71.00;11.80;98712.00;;;;4999499;28;87899;-59
2022/04/20 08:17:06;;;;;;;5.30;1.27;;;11.10;69.30;11.80;98677.00;;;;4995743;28;86929;-56
2022/04/20 08:19:41;;;;;;;8.80;1.23;;;11.10;70.60;11.80;98677.00;;;;5000131;28;87608;-58
2022/04/20 08:22:07;;;;;;;10.38;1.25;;;11.10;70.10;12.20;98678.00;;;;5001677;28;87179;-56
2022/04/20 08:24:33;;;;;;;7.05;1.40;;;11.40;71.20;12.20;98685.00;;;;5001371;28;86875;-59
2022/04/20 08:26:59;;;;;;;13.75;1.95;;;11.40;69.30;12.20;98696.00;;;;5000974;28;87307;-56
2022/04/20 08:29:25;;;;;;;20.63;1.50;;;11.40;68.50;12.20;98703.00;;;;5000219;28;88597;-61
2022/04/20 08:31:52;;;;;;;5.70;1.10;;;11.40;68.00;12.20;98660.00;;;;5001260;28;88363;-57
2022/04/20 08:34:18;;;;;;;4.75;1.27;;;11.50;64.70;12.30;98668.00;;;;4999826;28;87393;-59
2022/04/20 08:36:44;;;;;;;9.40;1.15;;;11.60;63.40;12.40;98672.00;;;;5001325;28;87340;-59
2022/04/20 08:39:10;;;;;;;11.38;1.20;;;11.70;62.70;12.50;98677.00;;;;5000621;28;87759;-55
2022/04/20 08:41:36;;;;;;;6.07;1.27;;;11.80;61.50;12.50;98672.00;;;;5000162;28;87235;-57
2022/04/20 08:44:05;;;;;;;13.73;1.25;;;11.80;60.80;12.50;98660.00;;;;5016517;28;87408;-58
2022/04/20 08:46:39;;;;;;;15.40;1.25;;;11.70;59.70;12.50;98680.00;;;;5000945;28;86422;-58
2022/04/20 08:49:06;;;;;;;5.22;1.13;;;11.70;59.60;12.60;98685.00;;;;5000532;28;87733;-56
2022/04/20 08:54:22;;;;;;;5.38;1.15;;;11.90;58.80;12.80;98677.00;;;;5000253;28;88952;-66
2022/04/20 08:59:36;;;;;;;6.18;1.55;;;12.10;57.40;12.70;98697.00;;;;5011974;28;88071;-66
2022/04/20 09:02:03;;;;;;;5.85;1.13;;;12.10;53.20;12.90;98666.00;;;;4999240;28;88276;-66
2022/04/20 09:04:29;;;;;;;15.48;1.50;;;12.10;54.70;12.90;98656.00;;;;5000043;28;87066;-66
2022/04/20 09:06:56;;;;;;;7.78;1.20;;;12.20;54.90;13.10;98693.00;;;;4999248;28;87679;-67
2022/04/20 09:09:29;;;;;;;6.40;1.52;;;12.30;52.40;13.20;98693.00;;;;4999855;28;87775;-65
2022/04/20 09:11:57;;;;;;;4.75;1.10;;;12.40;53.50;13.20;98666.00;;;;4998619;28;88474;-66
2022/04/20 09:14:24;;;;;;;7.32;1.15;;;12.50;52.90;13.30;98703.00;;;;4991521;28;87970;-66
2022/04/20 09:16:55;;;;;;;9.30;1.70;;;12.50;53.20;13.40;98660.00;;;;4998580;28;86976;-65
2022/04/20 09:19:28;;;;;;;6.33;1.40;;;12.60;52.90;13.50;98630.00;;;;4999934;28;89640;-65
2022/04/20 09:21:56;;;;;;;4.97;1.48;;;12.70;47.40;13.30;98664.00;;;;5015276;28;88271;-67
2022/04/20 09:24:22;;;;;;;8.40;1.55;;;12.60;45.50;13.40;98655.00;;;;5000027;28;86966;-68
2022/04/20 09:26:54;;;;;;;11.00;1.83;;;12.70;46.40;13.40;98664.00;;;;4999092;28;87505;-66
2022/04/20 09:29:21;;;;;;;3.95;1.23;;;12.70;47.00;13.60;98672.00;;;;4998887;28;89472;-66
2022/04/20 09:31:50;;;;;;;6.75;1.15;;;12.80;47.10;13.60;98692.00;;;;4999513;28;88199;-66
2022/04/20 09:34:25;;;;;;;5.28;1.15;;;12.80;46.30;13.80;98697.00;;;;4999784;28;86912;-66
2022/04/20 09:36:54;;;;;;;4.90;1.23;;;13.00;46.90;13.60;98687.00;;;;5000129;28;86755;-66
2022/04/20 09:39:21;;;;;;;11.75;1.85;;;12.80;45.70;13.40;98681.00;;;;4999880;28;88627;-67
2022/04/20 09:41:58;;;;;;;6.65;1.30;;;12.60;45.80;13.40;98670.00;;;;4999127;28;88367;-65
2022/04/20 09:44:27;;;;;;;6.93;1.10;;;12.60;45.00;13.40;98683.00;;;;4999359;28;87903;-65
2022/04/20 09:50:01;;;;;;;4.95;1.33;;;12.80;45.00;13.50;98673.00;;;;4999478;28;87538;-65
2022/04/20 09:52:37;;;;;;;9.98;1.33;;;12.70;43.60;13.40;98669.00;;;;4999856;28;87247;-65
2022/04/20 09:55:05;;;;;;;6.70;1.42;;;12.70;43.50;13.30;98669.00;;;;4999479;28;87917;-65
2022/04/20 09:57:34;;;;;;;7.93;1.27;;;12.60;43.50;13.40;98689.00;;;;4999287;28;87109;-65
2022/04/20 10:00:06;;;;;;;6.15;1.27;;;12.70;43.70;13.50;98648.00;;;;4997742;28;88464;-65
2022/04/20 10:02:49;;;;;;;6.63;1.38;;;12.80;43.30;13.80;98677.00;;;;4998574;28;89431;-65
2022/04/20 10:05:17;;;;;;;8.63;1.85;;;13.00;44.50;13.90;98686.00;;;;5014657;28;87504;-65
2022/04/20 10:07:43;;;;;;;6.78;1.30;;;13.10;42.60;13.60;98688.00;;;;4992902;28;89942;-65
2022/04/20 10:10:10;;;;;;;4.97;1.10;;;12.90;41.80;13.60;98666.00;;;;4998360;28;88616;-64
2022/04/20 10:12:41;;;;;;;7.82;1.50;;;12.90;40.90;13.80;98698.00;;;;4998657;28;90671;-66
2022/04/20 10:17:56;;;;;;;3.78;1.00;;;13.00;41.20;13.80;98702.00;;;;4999617;28;86945;-66
2022/04/20 10:20:26;;;;;;;2.97;1.10;;;13.10;41.10;13.80;98678.00;;;;5017554;28;87688;-66
2022/04/20 10:23:00;;;;;;;9.55;1.20;;;13.00;40.50;13.70;98699.00;;;;5001801;28;87487;-66
2022/04/20 10:25:28;;;;;;;8.57;1.30;;;12.90;40.20;13.80;98701.00;;;;5003405;28;86917;-65
2022/04/20 10:28:33;;;;;;;10.93;1.45;;;13.00;40.10;13.80;98694.00;;;;5002148;28;86141;-65
2022/04/20 10:31:41;;;;;;;5.80;1.50;;;13.00;39.60;13.70;98719.00;;;;4998540;28;87625;-65
2022/04/20 10:34:14;;;;;;;8.90;1.40;;;13.00;39.50;13.70;98678.00;;;;4999606;28;88637;-65
2022/04/20 10:37:19;;;;;;;6.97;1.40;;;13.00;40.00;13.70;98701.00;;;;5001521;28;87926;-65
2022/04/20 10:40:18;;;;;;;3.58;1.38;;;13.00;39.40;14.00;98666.00;;;;4998401;28;86952;-65
2022/04/20 10:43:23;;;;;;;5.53;1.20;;;13.20;41.00;14.00;98669.00;;;;5017025;28;87527;-67
2022/04/20 10:46:16;;;;;;;6.05;1.60;;;13.20;40.70;14.10;98693.00;;;;5000290;28;87173;-66
2022/04/20 10:48:57;;;;;;;3.03;1.50;;;13.30;40.80;14.20;98696.00;;;;5002083;28;87364;-65
2022/04/20 10:51:40;;;;;;;6.30;1.80;;;13.40;41.60;14.30;98681.00;;;;5001923;28;86980;-66
2022/04/20 10:54:24;;;;;;;9.55;1.60;;;13.40;41.90;14.30;98697.00;;;;4999747;28;87892;-62
2022/04/20 10:57:00;;;;;;;12.13;2.10;;;13.50;42.10;14.30;98682.00;;;;5000970;28;86841;-62
2022/04/20 10:59:30;;;;;;;10.50;1.27;;;13.50;42.90;14.50;98671.00;;;;5001103;28;87067;-64
2022/04/20 11:02:02;;;;;;;6.15;1.60;;;13.70;43.40;14.60;98694.00;;;;4999238;28;87467;-63
2022/04/20 11:04:44;;;;;;;5.75;1.65;;;13.80;42.70;14.50;98691.00;;;;4997711;28;88838;-58
2022/04/20 11:07:12;;;;;;;8.23;1.48;;;13.70;41.50;14.70;98678.00;;;;5001697;28;88111;-56
2022/04/20 11:09:52;;;;;;;11.40;1.40;;;13.90;42.00;14.60;98632.00;;;;5001156;28;87181;-58
2022/04/20 11:21:10;;;;;;;7.30;1.70;;;13.80;40.90;14.60;98676.00;;;;5000144;28;87259;-57
2022/04/20 11:24:11;;;;;;;4.22;1.20;;;13.90;41.80;14.60;98702.00;;;;5001945;28;86572;-58
2022/04/20 11:26:54;;;;;;;5.53;1.13;;;13.90;41.40;14.60;98659.00;;;;4985549;28;87696;-60
2022/04/20 11:29:22;;;;;;;12.95;1.65;;;13.90;42.10;14.70;98644.00;;;;5001257;28;87604;-60
2022/04/20 11:32:00;;;;;;;6.30;1.65;;;14.00;41.90;14.80;98651.00;;;;5000941;28;87861;-58
2022/04/20 11:34:34;;;;;;;6.85;1.63;;;14.00;42.10;14.80;98656.00;;;;5000284;28;88104;-57
2022/04/20 11:37:04;;;;;;;5.53;1.45;;;14.00;42.70;14.60;98676.00;;;;5000857;28;87771;-56
2022/04/20 11:39:31;;;;;;;6.90;1.20;;;13.90;43.20;14.70;98651.00;;;;5001467;28;87463;-59
2022/04/20 11:42:03;;;;;;;3.95;1.58;;;13.90;42.70;14.70;98662.00;;;;5001449;28;86875;-58
2022/04/20 11:44:41;;;;;;;9.73;2.20;;;13.90;43.30;14.80;98645.00;;;;5002394;28;86853;-55
2022/04/20 11:47:21;;;;;;;9.70;1.40;;;14.10;43.70;14.90;98644.00;;;;4999738;28;88164;-59
2022/04/20 11:49:48;;;;;;;4.82;1.45;;;14.10;41.50;15.00;98628.00;;;;5001131;28;87232;-60
2022/04/20 11:52:21;;;;;;;;;;;14.20;41.50;15.10;98642.00;;;;5001476;28;87499;-58
2022/04/20 11:55:07;;;;;;;8.52;1.25;;;14.30;42.80;14.80;98652.00;;;;4997071;28;87079;-59
2022/04/20 11:57:34;;;;;;;4.63;1.40;;;14.00;40.90;14.80;98636.00;;;;5013993;28;88262;-55
2022/04/20 12:00:00;;;;;;;6.72;1.60;;;14.10;42.00;15.00;98621.00;;;;4999758;28;89208;-58
2022/04/20 12:02:27;;;;;;;8.98;1.80;;;14.20;41.50;15.00;98608.00;;;;4998876;28;87087;-65